Time;durP1;ratioP1;P1;durP2;ratioP2;P2;SDS_P1;SDS_P2;PMS_P1;PMS_P2;Temp;Humidity;BMP_temperature;BMP_pressure;BME280_temperature;BME280_humidity;BME280_pressure;Samples;Min_cycle;Max_cycle;Signal;HPM_P1;HPM_P2
2022/06/01 00:00:43;;;;;;;30.75;19.80;;;;;;;8.76;100.00;99630.13;1792150;80;21085;-74
2022/06/01 00:03:10;;;;;;;30.08;19.02;;;;;;;8.72;100.00;99624.45;1791679;80;20864;-74
2022/06/01 00:05:38;;;;;;;45.45;24.85;;;;;;;8.77;100.00;99629.06;1791746;80;20898;-75
2022/06/01 00:08:06;;;;;;;43.35;23.67;;;;;;;8.79;100.00;99616.26;1791932;80;20950;-77
2022/06/01 00:10:34;;;;;;;43.25;24.85;;;;;;;8.81;100.00;99623.53;1791447;80;20887;-78
2022/06/01 00:13:03;;;;;;;46.73;26.07;;;;;;;8.84;100.00;99620.89;1792286;80;21163;-77
2022/06/01 00:15:30;;;;;;;51.53;27.13;;;;;;;8.85;100.00;99613.17;1759649;80;21381;-77
2022/06/01 00:18:00;;;;;;;55.80;27.90;;;;;;;8.83;100.00;99617.41;1791521;80;20852;-78
2022/06/01 00:20:28;;;;;;;48.85;27.60;;;;;;;8.80;100.00;99614.69;1785916;80;20912;-78
2022/06/01 00:22:59;;;;;;;56.13;29.67;;;;;;;8.76;100.00;99620.23;1771951;81;20883;-75
2022/06/01 00:25:25;;;;;;;53.75;28.70;;;;;;;8.76;100.00;99618.89;1771856;81;21760;-76
2022/06/01 00:27:54;;;;;;;48.48;28.90;;;;;;;8.76;100.00;99623.44;1771941;81;21395;-77
2022/06/01 00:30:21;;;;;;;54.20;33.40;;;;;;;8.68;100.00;99627.31;1772626;81;20852;-80
2022/06/01 00:32:49;;;;;;;61.83;33.25;;;;;;;8.63;100.00;99625.88;1748712;81;20864;-76
2022/06/01 00:35:20;;;;;;;54.95;30.23;;;;;;;8.60;100.00;99627.70;1772251;81;20916;-77
2022/06/01 00:37:46;;;;;;;58.63;29.00;;;;;;;8.58;100.00;99624.45;1772027;81;20951;-76
2022/06/01 00:40:17;;;;;;;51.00;27.40;;;;;;;8.56;100.00;99621.20;1772175;81;20895;-76
2022/06/01 00:42:46;;;;;;;45.50;26.73;;;;;;;8.55;100.00;99627.61;1772056;81;20876;-77
2022/06/01 00:45:17;;;;;;;45.50;22.77;;;;;;;8.54;100.00;99624.10;1772493;81;21414;-76
2022/06/01 00:47:43;;;;;;;36.25;21.35;;;;;;;8.54;100.00;99622.77;1771845;81;20848;-74
2022/06/01 00:50:15;;;;;;;38.78;22.20;;;;;;;8.57;100.00;99619.63;1747341;81;21288;-76
2022/06/01 00:52:46;;;;;;;43.68;22.37;;;;;;;8.57;100.00;99622.31;1772146;81;21440;-75
2022/06/01 00:55:28;;;;;;;44.30;24.90;;;;;;;8.57;100.00;99622.81;1772399;81;20872;-76
2022/06/01 00:58:00;;;;;;;45.15;26.17;;;;;;;8.51;100.00;99623.78;1771039;81;20880;-77
2022/06/01 01:00:29;;;;;;;40.35;23.57;;;;;;;8.40;100.00;99629.44;1771607;81;20848;-77
2022/06/01 01:02:58;;;;;;;40.20;23.52;;;;;;;8.34;100.00;99626.36;1772127;81;21192;-76
2022/06/01 01:05:27;;;;;;;41.80;21.35;;;;;;;8.29;100.00;99619.58;1749016;81;20876;-74
2022/06/01 01:07:54;;;;;;;42.00;20.52;;;;;;;8.25;100.00;99626.44;1723975;81;21450;-76
2022/06/01 01:10:21;;;;;;;38.57;21.20;;;;;;;8.22;100.00;99629.59;1699879;81;20884;-75
2022/06/01 01:13:04;;;;;;;39.80;20.48;;;;;;;8.14;100.00;99628.09;1772137;81;20880;-75
2022/06/01 01:15:55;;;;;;;29.63;17.40;;;;;;;8.07;100.00;99622.06;1772093;81;21787;-75
2022/06/01 01:18:25;;;;;;;22.85;16.42;;;;;;;8.01;100.00;99621.66;1771857;81;20859;-74
2022/06/01 01:21:24;;;;;;;23.92;16.80;;;;;;;8.00;100.00;99624.05;1772120;80;21387;-74
2022/06/01 01:24:02;;;;;;;28.15;18.20;;;;;;;7.97;100.00;99635.22;1771844;81;20872;-74
2022/06/01 01:26:29;;;;;;;32.05;17.45;;;;;;;7.89;100.00;99625.17;1771745;81;20880;-74
2022/06/01 01:28:58;;;;;;;17.02;13.18;;;;;;;7.83;100.00;99629.30;1771757;81;21402;-75
2022/06/01 01:31:25;;;;;;;17.50;14.28;;;;;;;7.85;100.00;99620.53;1771903;81;20911;-74
2022/06/01 01:33:55;;;;;;;34.18;16.42;;;;;;;7.88;100.00;99630.21;1771785;81;21343;-73
2022/06/01 01:36:30;;;;;;;28.47;16.67;;;;;;;7.88;100.00;99634.22;1771798;81;20884;-73
2022/06/01 01:39:12;;;;;;;19.27;16.75;;;;;;;7.89;100.00;99627.04;1771971;81;20876;-73
2022/06/01 01:41:46;;;;;;;26.70;17.77;;;;;;;7.92;100.00;99629.23;1747513;81;21884;-73
2022/06/01 01:44:25;;;;;;;22.80;17.75;;;;;;;7.99;100.00;99635.80;1771839;81;21402;-73
2022/06/01 01:46:52;;;;;;;30.77;21.73;;;;;;;8.10;100.00;99643.78;1771902;81;20872;-73
2022/06/01 01:49:26;;;;;;;28.40;19.98;;;;;;;8.20;100.00;99647.20;1771937;81;20907;-72
2022/06/01 01:51:58;;;;;;;31.60;18.60;;;;;;;8.28;100.00;99647.34;1772114;81;20880;-74
2022/06/01 01:54:50;;;;;;;25.92;18.10;;;;;;;8.36;100.00;99654.49;1771975;81;21294;-73
2022/06/01 01:57:41;;;;;;;24.90;17.45;;;;;;;8.43;100.00;99653.56;1772289;81;20922;-75
2022/06/01 02:00:17;;;;;;;25.25;16.60;;;;;;;8.50;100.00;99645.72;1772121;81;20903;-74
2022/06/01 02:03:19;;;;;;;23.55;15.90;;;;;;;8.58;100.00;99648.53;1748171;81;20984;-74
2022/06/01 02:06:07;;;;;;;21.57;17.00;;;;;;;8.67;100.00;99652.96;1748117;81;20932;-72
2022/06/01 02:08:46;;;;;;;29.07;19.65;;;;;;;8.72;100.00;99647.70;1772438;81;21085;-73
2022/06/01 02:14:29;;;;;;;22.37;15.53;;;;;;;8.77;100.00;99651.81;1772234;81;21414;-73
2022/06/01 02:17:09;;;;;;;38.63;19.42;;;;;;;8.76;100.00;99649.67;1772036;81;20852;-72
2022/06/01 02:19:52;;;;;;;35.25;19.90;;;;;;;8.77;100.00;99644.62;1772340;81;20853;-72
2022/06/01 02:22:19;;;;;;;36.77;17.27;;;;;;;8.77;100.00;99637.09;1786666;80;21896;-72
2022/06/01 02:24:46;;;;;;;32.38;17.20;;;;;;;8.75;100.00;99637.35;1791581;80;21447;-72
2022/06/01 02:27:14;;;;;;;25.40;17.57;;;;;;;8.71;100.00;99638.88;1791641;80;20902;-73
2022/06/01 02:29:57;;;;;;;25.65;15.20;;;;;;;8.74;100.00;99640.25;1791934;80;21433;-73
2022/06/01 02:32:25;;;;;;;25.85;16.20;;;;;;;8.78;100.00;99631.52;1791551;80;20887;-72
2022/06/01 02:34:54;;;;;;;24.27;15.95;;;;;;;8.79;100.00;99629.14;1791937;80;21077;-73
2022/06/01 02:37:21;;;;;;;20.80;14.47;;;;;;;8.82;100.00;99627.84;1791591;80;20859;-72
2022/06/01 02:39:52;;;;;;;19.10;13.32;;;;;;;8.90;100.00;99623.97;1791767;80;20933;-73
2022/06/01 02:42:25;;;;;;;17.07;11.10;;;;;;;9.05;100.00;99625.56;1791842;80;20939;-74
2022/06/01 02:44:58;;;;;;;14.43;10.50;;;;;;;9.22;100.00;99618.88;1791863;80;20871;-73
2022/06/01 02:47:27;;;;;;;11.88;10.03;;;;;;;9.40;100.00;99617.81;1791204;80;21062;-75
2022/06/01 02:49:53;;;;;;;10.98;9.68;;;;;;;9.58;100.00;99620.25;1791938;80;20883;-75
2022/06/01 02:52:21;;;;;;;10.95;8.83;;;;;;;9.77;100.00;99617.28;1791634;80;20862;-74
2022/06/01 02:54:48;;;;;;;10.43;9.25;;;;;;;9.95;100.00;99616.21;1791998;80;20914;-73
2022/06/01 02:57:15;;;;;;;13.88;8.98;;;;;;;10.12;100.00;99614.28;1791644;80;21489;-74
2022/06/01 02:59:43;;;;;;;15.98;11.05;;;;;;;10.27;100.00;99619.02;1792000;80;21166;-71
2022/06/01 03:02:10;;;;;;;11.30;9.58;;;;;;;10.41;100.00;99617.63;1791546;80;20906;-71
2022/06/01 03:04:37;;;;;;;11.80;10.50;;;;;;;10.54;100.00;99621.78;1760492;80;20910;-71
2022/06/01 03:07:04;;;;;;;11.18;10.05;;;;;;;10.68;100.00;99614.96;1791651;80;20879;-72
2022/06/01 03:09:31;;;;;;;12.25;9.55;;;;;;;10.84;100.00;99612.42;1791834;80;20930;-72
2022/06/01 03:11:58;;;;;;;9.55;8.58;;;;;;;11.00;100.00;99610.16;1791622;80;21200;-74
2022/06/01 03:14:25;;;;;;;8.98;7.45;;;;;;;11.12;100.00;99614.00;1791774;80;20923;-72
2022/06/01 03:16:53;;;;;;;8.48;7.50;;;;;;;11.24;100.00;99620.02;1791711;80;20891;-74
2022/06/01 03:19:20;;;;;;;7.53;6.83;;;;;;;11.35;100.00;99623.08;1792422;80;20922;-73
2022/06/01 03:21:48;;;;;;;7.85;7.10;;;;;;;11.47;100.00;99628.27;1791692;80;20875;-72
2022/06/01 03:24:15;;;;;;;6.92;6.30;;;;;;;11.59;100.00;99626.21;1791733;80;21082;-75
2022/06/01 03:26:42;;;;;;;8.68;6.42;;;;;;;11.76;100.00;99626.05;1791471;80;20907;-72
2022/06/01 03:29:09;;;;;;;8.93;7.20;;;;;;;11.90;100.00;99622.92;1791447;80;20891;-71
2022/06/01 03:31:35;;;;;;;7.03;6.28;;;;;;;12.00;100.00;99622.97;1791728;80;20836;-73
2022/06/01 03:34:03;;;;;;;11.53;7.22;;;;;;;12.09;100.00;99623.30;1791541;80;20883;-73
2022/06/01 03:36:31;;;;;;;9.87;6.53;;;;;;;12.23;100.00;99632.52;1792430;80;21093;-74
2022/06/01 03:38:59;;;;;;;8.23;6.12;;;;;;;12.40;100.00;99633.13;1791553;80;20911;-75
2022/06/01 03:41:27;;;;;;;6.15;5.55;;;;;;;12.49;100.00;99628.56;1792014;80;21378;-76
2022/06/01 03:46:40;;;;;;;6.50;5.30;;;;;;;12.72;100.00;99628.10;1792004;80;20887;-73
2022/06/01 03:49:06;;;;;;;8.15;5.85;;;;;;;12.86;100.00;99633.25;1791480;80;21194;-74
2022/06/01 03:51:36;;;;;;;6.08;5.45;;;;;;;13.05;100.00;99636.22;1791813;80;20907;-74
2022/06/01 03:54:02;;;;;;;6.83;5.33;;;;;;;13.10;100.00;99638.12;1791509;80;20899;-76
2022/06/01 03:56:30;;;;;;;5.28;4.87;;;;;;;13.19;100.00;99631.12;1791988;80;20928;-75
2022/06/01 03:58:57;;;;;;;5.42;4.92;;;;;;;13.29;100.00;99633.05;1791725;80;20891;-73
2022/06/01 04:01:24;;;;;;;6.20;5.20;;;;;;;13.40;100.00;99636.02;1791966;80;21182;-75
2022/06/01 04:03:51;;;;;;;5.30;4.67;;;;;;;13.57;100.00;99634.91;1791655;80;20859;-74
2022/06/01 04:06:18;;;;;;;5.85;5.17;;;;;;;13.63;100.00;99636.54;1791813;80;20902;-74
2022/06/01 04:08:46;;;;;;;6.08;5.58;;;;;;;13.55;100.00;99633.02;1791805;80;20831;-74
2022/06/01 04:11:13;;;;;;;6.40;4.95;;;;;;;13.62;100.00;99630.86;1792093;80;20903;-73
2022/06/01 04:13:41;;;;;;;5.55;5.05;;;;;;;13.80;100.00;99635.70;1791557;80;21348;-74
2022/06/01 04:16:07;;;;;;;6.28;5.67;;;;;;;13.91;100.00;99637.30;1791789;80;20915;-74
2022/06/01 04:18:35;;;;;;;6.80;6.20;;;;;;;14.03;100.00;99634.28;1791590;80;20895;-74
2022/06/01 04:21:02;;;;;;;5.33;4.67;;;;;;;14.29;100.00;99644.46;1760555;80;20831;-75
2022/06/01 04:23:29;;;;;;;6.45;5.50;;;;;;;14.49;100.00;99646.81;1791534;80;20923;-73
2022/06/01 04:25:56;;;;;;;5.75;4.85;;;;;;;14.58;100.00;99641.13;1791448;80;21192;-73
2022/06/01 04:28:22;;;;;;;5.70;5.10;;;;;;;14.70;100.00;99644.31;1791781;80;20906;-73
2022/06/01 04:30:49;;;;;;;4.95;4.50;;;;;;;14.90;100.00;99643.93;1791630;80;21398;-73
2022/06/01 04:33:16;;;;;;;6.05;4.72;;;;;;;14.98;100.00;99648.18;1791786;80;20867;-72
2022/06/01 04:35:44;;;;;;;7.28;4.95;;;;;;;15.05;100.00;99645.72;1791828;80;26994;-71
2022/06/01 04:38:13;;;;;;;6.87;5.20;;;;;;;15.13;100.00;99643.77;1791427;80;21188;-73
2022/06/01 04:40:43;;;;;;;6.65;5.35;;;;;;;15.08;100.00;99647.30;1791453;80;21394;-76
2022/06/01 04:43:12;;;;;;;5.83;5.30;;;;;;;14.98;100.00;99647.38;1791553;80;20871;-74
2022/06/01 04:45:39;;;;;;;7.00;5.90;;;;;;;15.31;100.00;99649.02;1791640;80;20863;-75
2022/06/01 04:48:06;;;;;;;6.97;5.10;;;;;;;15.77;100.00;99654.07;1791566;80;20852;-72
2022/06/01 04:50:33;;;;;;;6.42;4.67;;;;;;;16.03;100.00;99654.08;1791624;80;21177;-72
2022/06/01 04:53:01;;;;;;;6.17;5.43;;;;;;;16.36;100.00;99656.94;1791943;80;20967;-72
2022/06/01 04:55:28;;;;;;;5.15;4.75;;;;;;;16.33;100.00;99654.02;1791938;80;21683;-75
2022/06/01 04:57:54;;;;;;;6.87;4.75;;;;;;;16.28;100.00;99654.33;1791402;80;20863;-71
2022/06/01 05:00:22;;;;;;;5.25;4.47;;;;;;;16.36;100.00;99656.14;1791809;80;20915;-74
2022/06/01 05:02:49;;;;;;;5.92;4.72;;;;;;;16.36;100.00;99646.66;1791828;80;21083;-73
2022/06/01 05:05:16;;;;;;;5.83;4.50;;;;;;;16.25;100.00;99643.28;1791410;80;20875;-76
2022/06/01 05:07:42;;;;;;;8.00;4.75;;;;;;;16.25;100.00;99648.70;1791699;80;21363;-73
2022/06/01 05:10:09;;;;;;;8.15;4.72;;;;;;;16.29;100.00;99651.89;1791647;80;20891;-74
2022/06/01 05:12:36;;;;;;;8.63;4.30;;;;;;;16.52;100.00;99654.86;1791693;80;20879;-77
2022/06/01 05:15:04;;;;;;;4.97;4.37;;;;;;;16.69;100.00;99652.47;1791718;80;21473;-73
2022/06/01 05:17:32;;;;;;;5.92;4.87;;;;;;;16.74;100.00;99652.95;1791749;80;27996;-73
2022/06/01 05:19:59;;;;;;;6.03;4.40;;;;;;;16.40;100.00;99651.21;1791549;80;21434;-74
2022/06/01 05:22:26;;;;;;;6.67;4.10;;;;;;;16.23;100.00;99642.20;1786943;79;20875;-74
2022/06/01 05:24:53;;;;;;;5.30;4.80;;;;;;;16.44;100.00;99636.55;1780564;80;21375;-76
2022/06/01 05:27:19;;;;;;;5.28;4.22;;;;;;;16.67;100.00;99638.95;1780721;80;21406;-74
2022/06/01 05:29:46;;;;;;;8.63;5.00;;;;;;;16.95;100.00;99635.86;1780775;80;20911;-73
2022/06/01 05:32:13;;;;;;;5.97;5.37;;;;;;;17.13;100.00;99639.67;1780482;80;20959;-72
2022/06/01 05:34:40;;;;;;;6.80;4.83;;;;;;;17.39;100.00;99633.83;1780917;80;20876;-74
2022/06/01 05:37:07;;;;;;;5.03;4.53;;;;;;;17.58;100.00;99638.09;1780543;80;20879;-75
2022/06/01 05:39:34;;;;;;;5.97;4.05;;;;;;;17.92;100.00;99632.91;1780838;80;21088;-74
2022/06/01 05:42:00;;;;;;;7.03;4.95;;;;;;;18.03;100.00;99643.05;1748504;80;20915;-72
2022/06/01 05:44:27;;;;;;;4.80;4.22;;;;;;;18.12;100.00;99642.58;1780483;80;20919;-74
2022/06/01 05:46:55;;;;;;;10.72;4.75;;;;;;;18.33;100.00;99634.03;1780839;80;20832;-76
2022/06/01 05:49:22;;;;;;;5.58;4.85;;;;;;;18.64;100.00;99634.17;1780711;80;20915;-74
2022/06/01 05:51:49;;;;;;;11.95;5.15;;;;;;;19.13;100.00;99638.55;1780566;80;21167;-75
2022/06/01 05:54:16;;;;;;;4.50;3.98;;;;;;;19.33;100.00;99640.79;1780997;80;20891;-74
2022/06/01 05:56:42;;;;;;;6.12;4.42;;;;;;;19.48;100.00;99637.68;1780524;80;20836;-74
2022/06/01 05:59:09;;;;;;;4.87;3.83;;;;;;;19.74;100.00;99642.48;1780734;80;20865;-75
2022/06/01 06:01:36;;;;;;;5.03;3.73;;;;;;;20.12;97.54;99649.64;1780875;80;20942;-75
2022/06/01 06:04:04;;;;;;;4.12;3.75;;;;;;;20.17;98.08;99650.63;1780898;80;21074;-73
2022/06/01 06:06:31;;;;;;;5.65;4.37;;;;;;;20.41;97.73;99644.20;1780752;80;20927;-75
2022/06/01 06:09:02;;;;;;;5.00;4.45;;;;;;;20.81;92.57;99644.13;1780995;80;20868;-75
2022/06/01 06:11:32;;;;;;;6.70;4.00;;;;;;;20.84;92.51;99648.94;1780398;80;20900;-75
2022/06/01 06:13:59;;;;;;;6.60;4.22;;;;;;;21.19;88.74;99648.40;1780143;80;20946;-73
2022/06/01 06:16:29;;;;;;;4.22;3.67;;;;;;;21.58;86.58;99652.61;1746976;80;21162;-75
2022/06/01 06:18:57;;;;;;;5.45;4.28;;;;;;;21.68;83.49;99643.27;1780640;80;21414;-75
2022/06/01 06:21:25;;;;;;;5.12;3.50;;;;;;;21.59;81.60;99641.38;1780598;80;20840;-76
2022/06/01 06:23:53;;;;;;;7.22;4.65;;;;;;;21.32;82.68;99632.17;1790661;80;20903;-75
2022/06/01 06:26:21;;;;;;;7.15;4.12;;;;;;;21.42;85.20;99630.48;1761412;80;20872;-75
2022/06/01 06:28:48;;;;;;;5.85;3.75;;;;;;;21.45;85.60;99620.84;1791652;80;21146;-75
2022/06/01 06:31:14;;;;;;;7.53;4.77;;;;;;;21.31;82.21;99631.91;1792191;80;20903;-76
2022/06/01 06:33:41;;;;;;;5.30;3.95;;;;;;;21.23;84.62;99618.52;1791651;80;20919;-74
2022/06/01 06:36:08;;;;;;;5.22;4.10;;;;;;;21.01;86.76;99615.41;1791913;80;20855;-77
2022/06/01 06:38:36;;;;;;;5.83;4.22;;;;;;;21.44;85.59;99615.95;1792216;80;20939;-73
2022/06/01 06:41:04;;;;;;;8.10;4.25;;;;;;;21.57;83.02;99616.31;1791590;80;21876;-77
2022/06/01 06:43:31;;;;;;;5.15;4.08;;;;;;;21.78;89.96;99612.89;1791949;80;27106;-76
2022/06/01 06:46:01;;;;;;;9.00;4.28;;;;;;;22.23;78.07;99624.11;1792078;80;20863;-73
2022/06/01 06:48:28;;;;;;;4.33;3.92;;;;;;;22.35;80.20;99616.58;1790827;80;20920;-74
2022/06/01 06:50:57;;;;;;;6.95;3.95;;;;;;;22.25;76.57;99618.33;1791913;80;20947;-75
2022/06/01 06:53:24;;;;;;;4.62;3.90;;;;;;;22.15;77.38;99618.11;1791488;80;21206;-75
2022/06/01 06:55:50;;;;;;;5.87;4.30;;;;;;;22.36;77.79;99609.96;1791692;80;21430;-74
2022/06/01 06:58:17;;;;;;;5.67;4.37;;;;;;;22.75;82.72;99611.23;1792176;80;20867;-77
2022/06/01 07:00:44;;;;;;;7.53;4.83;;;;;;;22.53;74.76;99607.69;1791617;80;20863;-72
2022/06/01 07:03:12;;;;;;;7.25;4.35;;;;;;;22.42;76.11;99609.22;1792142;80;20927;-74
2022/06/01 07:08:27;;;;;;;5.40;3.65;;;;;;;22.53;73.34;99613.73;1791435;80;21404;-72
2022/06/01 07:10:54;;;;;;;6.78;3.90;;;;;;;22.44;72.48;99609.12;1760759;80;20902;-76
2022/06/01 07:13:27;;;;;;;7.78;3.62;;;;;;;22.14;75.06;99606.13;1791914;80;20895;-71
2022/06/01 07:16:11;;;;;;;6.35;3.62;;;;;;;21.96;77.03;99607.58;1790160;80;20844;-69
2022/06/01 07:18:40;;;;;;;4.67;3.90;;;;;;;21.36;84.18;99605.27;1761018;80;21461;-76
2022/06/01 07:21:07;;;;;;;5.12;4.62;;;;;;;21.59;87.21;99603.70;1791657;80;20910;-74
2022/06/01 07:23:35;;;;;;;6.30;4.50;;;;;;;21.96;82.40;99602.69;1791835;80;20868;-70
2022/06/01 07:26:03;;;;;;;5.37;3.85;;;;;;;22.46;84.08;99597.84;1791585;80;20922;-74
2022/06/01 07:28:30;;;;;;;7.58;4.70;;;;;;;22.76;76.89;99606.81;1791929;80;20899;-76
2022/06/01 07:30:57;;;;;;;6.87;4.50;;;;;;;22.78;76.14;99605.09;1792016;80;21452;-72
2022/06/01 07:33:25;;;;;;;5.40;4.15;;;;;;;23.31;77.11;99604.89;1791811;80;21449;-72
2022/06/01 07:35:53;;;;;;;6.37;4.00;;;;;;;23.48;70.81;99599.23;1791717;80;20946;-76
2022/06/01 07:43:53;;;;;;;7.58;4.20;;;;;;;23.86;70.95;99603.67;1791935;80;21193;-74
2022/06/01 07:46:20;;;;;;;6.92;3.70;;;;;;;23.32;73.33;99598.27;1791928;80;20899;-77
2022/06/01 07:48:49;;;;;;;3.95;3.55;;;;;;;23.39;74.31;99601.83;1791714;80;20918;-76
2022/06/01 07:51:17;;;;;;;5.40;3.80;;;;;;;23.91;70.41;99599.88;1791853;80;20975;-77
2022/06/01 07:53:44;;;;;;;4.03;3.60;;;;;;;24.34;71.63;99602.63;1791636;80;21414;-74
2022/06/01 07:56:10;;;;;;;4.57;3.63;;;;;;;24.09;68.41;99597.16;1792000;80;21746;-71
